• Join FlightAware (Why Join?)
  • Login
  • US Flag 
08:19PM EDT


 

Airport Tracker/Info


-or-


 

Live Flight TrackerFlight Track Log ✈ ASQ168T ✈ 12-May-2013 ✈ KORD - KABE

Flight Track Log - Related Links

Times and Time Zones

All times are in EDT time to prevent confusion due to time zone crossing. See the ASQ168T flight status page for this flight to view local times or setup timezone preferences in your user account.

Time Position Orientation Groundspeed Altitude Reporting Facility
EDT Latitude Longitude Course Direction KTS MPH feet Rate Location/Type
08:29PM 42.0000 -87.8833 66° East 157 181 1,500  Level Chicago TRACON
08:30PM 42.0167 -87.8333 66° East 204 235 3,200 1,620 Climbing Chicago TRACON
08:32PM 42.0092 -87.5983 92° East 276 318 7,100 1,680 Climbing Chicago Center
08:33PM 41.9961 -87.4936 99° East 284 327 9,300 1,920 Climbing Chicago Center
08:34PM 41.9831 -87.3811 99° East 301 346 11,100 1,920 Climbing Chicago Center
08:35PM 41.9650 -87.2367 99° East 325 374 13,300 1,500 Climbing Chicago Center
08:36PM 41.9508 -87.1081 98° East 347 399 14,300 1,020 Climbing Chicago Center
08:37PM 41.9461 -86.9708 93° East 370 426 15,500 1,020 Climbing Chicago Center
08:38PM 41.9481 -86.8281 89° East 382 440 16,500 960 Climbing Chicago Center
08:40PM 41.9494 -86.6839 89° East 398 458 17,500 960 Climbing Chicago Center
08:41PM 41.9536 -86.5033 88° East 404 465 18,500 960 Climbing Chicago Center
08:42PM 41.9544 -86.3478 90° East 416 479 19,600 960 Climbing Chicago Center
08:43PM 41.9533 -86.1897 90° East 424 488 20,600 960 Climbing Chicago Center
08:44PM 41.9386 -86.0267 97° East 436 502 21,600 960 Climbing Chicago Center
08:45PM 41.9222 -85.8628 98° East 441 507 22,600 960 Climbing Chicago Center
08:46PM 41.9069 -85.6986 97° East 442 509 23,700 960 Climbing Chicago Center
08:47PM 41.8908 -85.5333 97° East 442 509 24,700 1,020 Climbing Chicago Center
08:48PM 41.8717 -85.3333 97° East 443 510 25,900 1,080 Climbing Chicago Center
08:49PM 41.8544 -85.1675 98° East 443 510 27,000 960 Climbing Chicago Center
08:49PM 41.8433 -85.0572 98° East 448 516 27,600 960 Climbing Cleveland Center
08:50PM 41.8286 -84.8975 97° East 448 516 28,600 960 Climbing Cleveland Center
08:51PM 41.8117 -84.7347 98° East 448 516 29,600 960 Climbing Cleveland Center
08:52PM 41.7947 -84.5692 98° East 448 516 30,600 960 Climbing Cleveland Center
08:53PM 41.7775 -84.4036 98° East 448 516 31,600 900 Climbing Cleveland Center
08:54PM 41.7739 -84.2531 92° East 448 516 32,500 660 Climbing Cleveland Center
08:55PM 41.7731 -84.0858 90° East 448 516 33,000 240 Climbing Cleveland Center
08:56PM 41.7722 -83.9050 90° East 460 529 33,000  Level Cleveland Center
08:57PM 41.7717 -83.6961 90° East 495 570 33,000  Level Cleveland Center
08:58PM 41.7619 -83.5089 94° East 500 575 33,000  Level Cleveland Center
08:59PM 41.7481 -83.3219 96° East 500 575 33,000  Level Cleveland Center
09:00PM 41.7292 -83.1375 98° East 500 575 33,000  Level Cleveland Center
09:01PM 41.7125 -82.9503 97° East 507 583 33,000  Level Cleveland Center
09:02PM 41.6911 -82.7661 99° East 502 578 33,000  Level Cleveland Center
09:03PM 41.6714 -82.5819 98° East 502 578 33,000  Level Cleveland Center
09:04PM 41.6517 -82.4006 98° East 502 578 33,000  Level Cleveland Center
09:05PM 41.6353 -82.2333 97° East 502 578 33,000  Level Cleveland Center
09:06PM 41.6169 -82.0469 97° East 502 578 33,000  Level Cleveland Center
09:07PM 41.5942 -81.8603 99° East 507 583 33,000  Level Cleveland Center
09:08PM 41.5733 -81.6600 98° East 507 583 33,000  Level Cleveland Center
09:09PM 41.5522 -81.4739 99° East 507 583 33,000  Level Cleveland Center
09:10PM 41.5306 -81.2850 99° East 507 583 33,000  Level Cleveland Center
09:11PM 41.5106 -81.1017 98° East 502 578 33,000  Level Cleveland Center
09:12PM 41.4925 -80.9131 97° East 507 583 33,000  Level Cleveland Center
09:13PM 41.4783 -80.7494 97° East 501 577 33,000  Level Cleveland Center
09:14PM 41.4617 -80.5611 97° East 507 583 33,000  Level Cleveland Center
09:15PM 41.4450 -80.3781 97° East 502 578 33,000  Level Cleveland Center
09:16PM 41.4297 -80.1900 96° East 502 578 33,000  Level Cleveland Center
09:17PM 41.4103 -80.0044 98° East 502 578 33,000  Level Cleveland Center
09:18PM 41.3903 -79.8000 97° East 507 583 33,000  Level Cleveland Center
09:19PM 41.3744 -79.6314 97° East 507 583 33,000 -600 Level Cleveland Center
09:20PM 41.3539 -79.4269 98° East 501 577 31,900 -1,320 Descending Cleveland Center
09:21PM 41.3353 -79.2475 98° East 501 577 30,400 -1,500 Descending Cleveland Center
09:22PM 41.3161 -79.0653 98° East 501 577 28,900 -1,380 Descending Cleveland Center
09:23PM 41.2969 -78.8833 98° East 501 577 27,700 -1,080 Descending Cleveland Center
09:24PM 41.2775 -78.6989 98° East 501 577 26,800 -960 Descending Cleveland Center
09:25PM 41.2556 -78.5144 99° East 501 577 25,800 -720 Descending Cleveland Center
09:27PM 41.2200 -78.2025 99° East 503 579 25,000 -300 Descending New York Center
09:28PM 41.1997 -78.0239 99° East 498 573 25,000  Level New York Center
09:29PM 41.1775 -77.8422 99° East 493 567 25,000 -480 Level New York Center
09:30PM 41.1483 -77.6656 102° East 493 567 24,100 -1,260 Descending New York Center
09:31PM 41.1106 -77.4881 106° East 493 567 22,600 -1,500 Descending New York Center
09:32PM 41.0739 -77.3219 106° East 493 567 21,200 -1,440 Descending New York Center
09:33PM 41.0408 -77.1647 106° East 464 534 19,700 -1,440 Descending New York Center
09:34PM 41.0069 -77.0183 107° East 440 506 18,400 -1,320 Descending New York Center
09:35PM 40.9806 -76.8867 105° East 424 488 17,100 -1,260 Descending New York Center
09:36PM 40.9467 -76.7328 106° East 407 468 15,900 -1,020 Descending New York Center
09:37PM 40.9156 -76.6036 108° East 407 468 15,100 -840 Descending New York Center
09:38PM 40.8836 -76.4497 105° East 402 463 14,300 -780 Descending New York Center
09:39PM 40.8542 -76.3239 107° East 402 463 13,600 -780 Descending New York Center
09:40PM 40.8197 -76.1675 106° East 409 471 12,800 -1,080 Descending New York Center
09:41PM 40.7900 -76.0364 107° East 401 461 11,500 -1,440 Descending New York Center
09:42PM 40.7619 -75.9164 107° East 364 419 10,000 -1,260 Descending New York Center
09:43PM 40.7411 -75.8217 106° East 315 362 9,000 -1,320 Descending New York Center
09:44PM 40.7375 -75.7064 92° East 290 334 7,400 -1,560 Descending New York Center
09:45PM 40.7506 -75.5950 81° East 290 334 6,000 -1,440 Descending New York Center
09:46PM 40.7672 -75.4919 78° East 295 339 4,600 -1,440 Descending New York Center
09:47PM 40.7606 -75.3956 95° East 278 320 3,100 -1,200 Descending New York Center
09:48PM 40.7122 -75.3514 145° Southeast 223 257 2,300 -900 Descending New York Center
09:49PM 40.6839 -75.3850 222° Southwest 102 117 1,400 -600 Descending New York Center
09:50PM 40.6586 -75.3942 195° South 102 117 1,200 3,780 Descending New York Center
09:51PM 40.6311 -75.4061 198° South 102 117 9,000 3,900 Climbing New York Center
09:52PM 40.6056 -75.4181 200° South 102 117 9,000  Level New York Center
09:53PM 40.5781 -75.4297 198° South 102 117 9,000  Level New York Center
09:54PM 40.5736 -75.4322 203° Southwest 102 117 9,000  Level New York Center